Time;durP1;ratioP1;P1;durP2;ratioP2;P2;SDS_P1;SDS_P2;PMS_P1;PMS_P2;Temp;Humidity;BMP_temperature;BMP_pressure;BME280_temperature;BME280_humidity;BME280_pressure;Samples;Min_cycle;Max_cycle;Signal;HPM_P1;HPM_P2
2022/07/18 00:01:46;;;;;;;0.15;0.13;;;16.00;99.90;;;;;;5146806;28;20039;-84
2022/07/18 00:04:13;;;;;;;0.77;0.47;;;16.00;99.90;;;;;;5113320;28;20044;-85
2022/07/18 00:06:40;;;;;;;0.80;0.43;;;16.00;99.90;;;;;;5146756;28;20062;-85
2022/07/18 00:09:06;;;;;;;0.80;0.50;;;15.90;99.90;;;;;;5129506;28;20042;-84
2022/07/18 00:11:33;;;;;;;0.95;0.52;;;15.90;99.90;;;;;;5146949;28;20080;-84
2022/07/18 00:14:00;;;;;;;0.30;0.30;;;15.90;99.90;;;;;;5129628;28;20039;-86
2022/07/18 00:16:26;;;;;;;0.40;0.35;;;15.80;99.90;;;;;;5146973;28;20036;-84
2022/07/18 00:18:54;;;;;;;0.32;0.30;;;15.70;99.90;;;;;;5163855;28;20046;-84
2022/07/18 00:21:21;;;;;;;0.28;0.20;;;15.80;99.90;;;;;;5130056;28;20035;-85
2022/07/18 00:23:48;;;;;;;0.73;0.30;;;15.70;99.90;;;;;;5146241;28;20035;-84
2022/07/18 00:26:14;;;;;;;0.65;0.43;;;15.60;99.90;;;;;;5130146;28;20044;-83
2022/07/18 00:28:41;;;;;;;0.55;0.40;;;15.70;99.90;;;;;;5146491;28;20450;-85
2022/07/18 00:31:08;;;;;;;0.63;0.40;;;15.60;99.90;;;;;;5146803;28;20039;-84
2022/07/18 00:33:35;;;;;;;0.30;0.25;;;15.60;99.90;;;;;;5146624;28;20043;-86
2022/07/18 00:36:02;;;;;;;0.77;0.32;;;15.60;99.90;;;;;;5146275;28;20051;-84
2022/07/18 00:38:29;;;;;;;0.70;0.40;;;15.50;99.90;;;;;;5163653;28;20052;-85
2022/07/18 00:40:55;;;;;;;0.43;0.30;;;15.50;99.90;;;;;;5146066;28;20046;-84
2022/07/18 00:43:22;;;;;;;0.40;0.40;;;15.50;99.90;;;;;;5146793;28;20040;-86
2022/07/18 00:45:50;;;;;;;0.80;0.30;;;15.40;99.90;;;;;;5146996;28;20043;-85
2022/07/18 00:48:17;;;;;;;1.45;0.60;;;15.40;99.90;;;;;;5146233;28;20035;-84
2022/07/18 00:50:44;;;;;;;1.00;0.43;;;15.40;99.90;;;;;;5147622;28;20035;-84
2022/07/18 00:53:11;;;;;;;0.55;0.43;;;15.40;99.90;;;;;;5133795;28;20039;-85
2022/07/18 00:55:43;;;;;;;0.55;0.35;;;15.40;99.90;;;;;;5150559;28;20047;-84
2022/07/18 00:58:11;;;;;;;0.47;0.38;;;15.30;99.90;;;;;;5150317;28;20043;-84
2022/07/18 01:03:24;;;;;;;2.33;0.40;;;15.30;99.90;;;;;;5184535;27;20043;-86
2022/07/18 01:05:51;;;;;;;0.55;0.50;;;15.30;99.90;;;;;;5167342;27;20043;-85
2022/07/18 01:08:18;;;;;;;0.10;0.10;;;15.30;99.90;;;;;;5133134;28;20039;-85
2022/07/18 01:10:44;;;;;;;1.05;0.35;;;15.20;99.90;;;;;;5149922;28;20354;-85
2022/07/18 01:13:11;;;;;;;0.52;0.30;;;15.20;99.90;;;;;;5167716;27;20031;-83
2022/07/18 01:15:38;;;;;;;0.43;0.32;;;15.20;99.90;;;;;;5150115;28;20040;-84
2022/07/18 01:18:05;;;;;;;0.35;0.30;;;15.20;99.90;;;;;;5149704;28;20043;-85
2022/07/18 01:20:32;;;;;;;0.30;0.30;;;15.20;99.90;;;;;;5132665;28;20096;-84
2022/07/18 01:22:59;;;;;;;0.40;0.40;;;15.20;99.90;;;;;;5149778;28;20127;-85
2022/07/18 01:25:26;;;;;;;0.40;0.25;;;15.10;99.90;;;;;;5149755;28;20031;-84
2022/07/18 01:27:54;;;;;;;0.43;0.30;;;15.10;99.90;;;;;;5132322;28;20089;-85
2022/07/18 01:30:20;;;;;;;0.52;0.40;;;15.10;99.90;;;;;;5133132;28;20040;-85
2022/07/18 01:32:58;;;;;;;0.43;0.22;;;15.10;99.90;;;;;;5166769;27;20039;-85
2022/07/18 01:35:26;;;;;;;0.65;0.40;;;15.10;99.90;;;;;;5149532;28;20056;-85
2022/07/18 01:37:57;;;;;;;0.25;0.25;;;15.00;99.90;;;;;;5132388;28;20040;-84
2022/07/18 01:40:24;;;;;;;0.50;0.40;;;15.00;99.90;;;;;;5127463;28;20070;-86
2022/07/18 01:42:51;;;;;;;0.68;0.50;;;15.00;99.90;;;;;;5116066;28;20093;-85
2022/07/18 01:45:19;;;;;;;0.15;0.15;;;14.90;99.90;;;;;;5132705;28;20043;-84
2022/07/18 01:47:46;;;;;;;0.20;0.20;;;14.90;99.90;;;;;;5132766;28;20039;-84
2022/07/18 01:50:14;;;;;;;0.30;0.30;;;14.90;99.90;;;;;;5132487;28;20122;-85
2022/07/18 01:52:40;;;;;;;0.15;0.15;;;14.90;99.90;;;;;;5098846;28;20133;-84
2022/07/18 01:55:09;;;;;;;0.55;0.30;;;14.90;99.90;;;;;;5098924;28;20047;-83
2022/07/18 01:57:36;;;;;;;0.60;0.40;;;14.80;99.90;;;;;;5132312;28;20040;-84
2022/07/18 02:00:06;;;;;;;0.68;0.40;;;14.80;99.90;;;;;;5115245;28;20036;-85
2022/07/18 02:02:33;;;;;;;0.40;0.30;;;14.80;99.90;;;;;;5115202;28;20043;-85
2022/07/18 02:04:59;;;;;;;0.50;0.50;;;14.80;99.90;;;;;;5115488;28;20492;-85
2022/07/18 02:07:38;;;;;;;0.22;0.20;;;14.80;99.90;;;;;;5098730;28;20071;-85
2022/07/18 02:10:11;;;;;;;0.63;0.35;;;14.70;99.90;;;;;;5149049;28;20067;-85
2022/07/18 02:12:39;;;;;;;1.00;0.50;;;14.70;99.90;;;;;;5132105;28;20047;-85
2022/07/18 02:15:08;;;;;;;0.70;0.45;;;14.70;99.90;;;;;;5131857;28;20458;-84
2022/07/18 02:17:35;;;;;;;0.30;0.30;;;14.70;99.90;;;;;;5115322;28;20039;-84
2022/07/18 02:20:07;;;;;;;0.88;0.50;;;14.70;99.90;;;;;;5131579;28;20031;-85
2022/07/18 02:22:34;;;;;;;0.20;0.20;;;14.70;99.90;;;;;;5132383;28;20042;-85
2022/07/18 02:25:01;;;;;;;0.93;0.50;;;14.70;99.90;;;;;;5131532;28;20122;-84
2022/07/18 02:27:27;;;;;;;0.35;0.30;;;14.70;99.90;;;;;;5114923;28;20530;-85
2022/07/18 02:29:57;;;;;;;0.32;0.30;;;14.70;99.90;;;;;;5098344;28;20047;-85
2022/07/18 02:32:24;;;;;;;0.70;0.52;;;14.60;99.90;;;;;;5114994;28;20071;-84
2022/07/18 02:34:50;;;;;;;0.20;0.20;;;14.60;99.90;;;;;;5131565;28;20070;-84
2022/07/18 02:37:17;;;;;;;0.20;0.20;;;14.60;99.90;;;;;;5148313;28;20047;-84
2022/07/18 02:39:44;;;;;;;0.55;0.50;;;14.50;99.90;;;;;;5148511;28;20092;-85
2022/07/18 02:42:11;;;;;;;0.47;0.35;;;14.50;99.90;;;;;;5148113;28;20126;-84
2022/07/18 02:44:37;;;;;;;0.28;0.17;;;14.50;99.90;;;;;;5148292;28;20472;-84
2022/07/18 02:47:04;;;;;;;1.00;0.55;;;14.50;99.90;;;;;;5130986;28;20071;-85
2022/07/18 02:49:31;;;;;;;0.47;0.25;;;14.50;99.90;;;;;;5148415;28;20043;-85
2022/07/18 02:52:01;;;;;;;0.38;0.28;;;14.50;99.90;;;;;;5131132;28;20040;-84
2022/07/18 02:54:29;;;;;;;0.28;0.28;;;14.50;99.90;;;;;;5131633;28;20050;-84
2022/07/18 02:56:56;;;;;;;0.55;0.38;;;14.50;99.90;;;;;;5148420;28;20035;-85
2022/07/18 02:59:25;;;;;;;0.45;0.38;;;14.50;99.90;;;;;;5148448;28;20046;-85
2022/07/18 03:01:52;;;;;;;0.20;0.20;;;14.50;99.90;;;;;;5148868;28;20042;-85
2022/07/18 03:04:20;;;;;;;0.52;0.30;;;14.50;99.90;;;;;;5148818;28;20046;-84
2022/07/18 03:06:47;;;;;;;0.65;0.35;;;14.40;99.90;;;;;;5148835;28;20400;-85
2022/07/18 03:09:15;;;;;;;0.32;0.20;;;14.40;99.90;;;;;;5130967;28;20062;-85
2022/07/18 03:11:42;;;;;;;0.43;0.30;;;14.40;99.90;;;;;;5148106;28;20031;-85
2022/07/18 03:14:09;;;;;;;0.77;0.40;;;14.40;99.90;;;;;;5129915;28;20043;-86
2022/07/18 03:16:36;;;;;;;0.30;0.30;;;14.40;99.90;;;;;;5130447;28;20385;-86
2022/07/18 03:19:03;;;;;;;0.38;0.32;;;14.40;99.90;;;;;;5130634;28;20035;-86
2022/07/18 03:21:29;;;;;;;0.93;0.50;;;14.30;99.90;;;;;;5130183;28;20385;-86
2022/07/18 03:23:56;;;;;;;0.63;0.30;;;14.30;99.90;;;;;;5130378;28;20123;-84
2022/07/18 03:26:23;;;;;;;0.73;0.43;;;14.40;99.90;;;;;;5130141;28;20067;-85
2022/07/18 03:28:50;;;;;;;0.15;0.15;;;14.40;99.90;;;;;;5147191;28;20070;-85
2022/07/18 03:31:17;;;;;;;0.60;0.50;;;14.40;99.90;;;;;;5147311;28;20035;-86
2022/07/18 03:33:44;;;;;;;1.20;0.55;;;14.40;99.90;;;;;;5130431;28;20377;-86
2022/07/18 03:36:10;;;;;;;0.28;0.20;;;14.40;99.90;;;;;;5147059;28;20055;-85
2022/07/18 03:38:37;;;;;;;0.47;0.40;;;14.30;99.90;;;;;;5164485;27;20050;-84
2022/07/18 03:41:04;;;;;;;0.50;0.40;;;14.30;99.90;;;;;;5129920;28;20059;-86
2022/07/18 03:43:31;;;;;;;1.15;0.30;;;14.30;99.90;;;;;;5130115;28;20036;-84
2022/07/18 03:45:58;;;;;;;0.82;0.45;;;14.30;99.90;;;;;;5147102;28;20035;-84
2022/07/18 03:48:24;;;;;;;0.13;0.13;;;14.30;99.90;;;;;;5129893;28;20054;-85
2022/07/18 03:50:51;;;;;;;0.85;0.38;;;14.40;99.90;;;;;;5146991;28;20035;-85
2022/07/18 03:53:18;;;;;;;0.20;0.20;;;14.40;99.90;;;;;;5130102;28;20096;-86
2022/07/18 03:55:45;;;;;;;0.20;0.20;;;14.50;99.90;;;;;;5147162;28;20047;-86
2022/07/18 03:58:12;;;;;;;0.55;0.50;;;14.60;99.90;;;;;;5129784;28;20043;-84
2022/07/18 04:00:38;;;;;;;1.00;0.43;;;14.50;99.90;;;;;;5147494;28;20515;-85
2022/07/18 04:03:05;;;;;;;0.50;0.43;;;14.50;99.90;;;;;;5129982;28;20461;-84
2022/07/18 04:05:32;;;;;;;0.80;0.38;;;14.50;99.90;;;;;;5130527;28;20035;-85
2022/07/18 04:07:59;;;;;;;0.43;0.30;;;14.60;99.90;;;;;;5164216;28;20128;-86
2022/07/18 04:10:26;;;;;;;0.60;0.20;;;14.50;99.90;;;;;;5146603;28;20101;-85
2022/07/18 04:12:55;;;;;;;0.30;0.30;;;14.50;99.90;;;;;;5130486;28;20130;-85
2022/07/18 04:15:24;;;;;;;0.28;0.20;;;14.50;99.90;;;;;;5129637;28;20511;-86
2022/07/18 04:17:51;;;;;;;0.20;0.20;;;14.60;99.90;;;;;;5129748;28;20082;-85
2022/07/18 04:20:20;;;;;;;0.82;0.47;;;14.60;99.90;;;;;;5129517;28;20042;-85
2022/07/18 04:22:55;;;;;;;0.95;0.55;;;14.60;99.90;;;;;;5146989;28;20080;-84
2022/07/18 04:25:24;;;;;;;0.57;0.45;;;14.60;99.90;;;;;;5162641;27;20539;-85
2022/07/18 04:27:52;;;;;;;0.20;0.20;;;14.70;99.90;;;;;;5132555;28;20036;-86
2022/07/18 04:30:21;;;;;;;0.20;0.20;;;14.70;99.90;;;;;;5133745;28;20107;-86
2022/07/18 04:32:48;;;;;;;0.55;0.45;;;14.80;99.90;;;;;;5150561;28;20035;-85
2022/07/18 04:35:15;;;;;;;0.73;0.40;;;14.80;99.90;;;;;;5133678;28;20059;-85
2022/07/18 04:37:42;;;;;;;0.22;0.22;;;14.90;99.90;;;;;;5150691;28;20047;-85
2022/07/18 04:40:10;;;;;;;0.65;0.38;;;15.00;99.90;;;;;;5150960;28;20108;-85
2022/07/18 04:42:37;;;;;;;0.55;0.40;;;15.10;99.90;;;;;;5126516;28;20044;-86
2022/07/18 04:45:05;;;;;;;0.55;0.30;;;15.20;99.90;;;;;;5097041;28;20028;-85
2022/07/18 04:47:32;;;;;;;0.47;0.38;;;15.30;99.90;;;;;;5096176;28;20036;-86
2022/07/18 04:49:58;;;;;;;0.55;0.30;;;15.40;99.90;;;;;;5096856;28;20050;-85
2022/07/18 04:52:25;;;;;;;0.52;0.25;;;15.50;99.90;;;;;;5115447;28;20459;-86
2022/07/18 04:54:52;;;;;;;0.30;0.30;;;15.60;99.90;;;;;;5133477;28;20090;-84
2022/07/18 04:57:19;;;;;;;0.93;0.40;;;15.70;99.90;;;;;;5150312;28;20075;-85
2022/07/18 04:59:46;;;;;;;0.30;0.25;;;15.70;99.90;;;;;;5150910;28;20036;-86
2022/07/18 05:02:13;;;;;;;0.40;0.40;;;15.80;99.90;;;;;;5133190;28;20173;-86
2022/07/18 05:04:40;;;;;;;0.17;0.17;;;15.90;99.90;;;;;;5150489;28;20122;-85
2022/07/18 05:07:07;;;;;;;0.25;0.25;;;16.00;99.90;;;;;;5150123;28;20512;-86
2022/07/18 05:09:34;;;;;;;0.47;0.32;;;16.10;99.90;;;;;;5124514;28;20050;-86
2022/07/18 05:12:01;;;;;;;0.20;0.20;;;16.10;99.90;;;;;;5164658;27;20040;-86
2022/07/18 05:14:28;;;;;;;0.40;0.30;;;16.20;99.90;;;;;;5133012;28;20039;-85
2022/07/18 05:16:58;;;;;;;0.10;0.10;;;16.20;99.90;;;;;;5132911;28;20126;-85
2022/07/18 05:19:27;;;;;;;0.25;0.25;;;16.20;99.90;;;;;;5149968;28;20043;-84
2022/07/18 05:21:54;;;;;;;0.63;0.43;;;16.30;99.90;;;;;;5132567;28;20511;-86
2022/07/18 05:24:21;;;;;;;0.52;0.40;;;16.30;99.90;;;;;;5143951;28;20036;-84
2022/07/18 05:26:48;;;;;;;0.52;0.40;;;16.40;99.90;;;;;;5112567;28;20134;-86
2022/07/18 05:29:14;;;;;;;1.00;0.50;;;16.40;99.90;;;;;;5112435;28;20046;-84
2022/07/18 05:31:41;;;;;;;0.50;0.32;;;16.40;99.90;;;;;;5095732;28;20040;-86
2022/07/18 05:34:08;;;;;;;0.70;0.45;;;16.50;99.90;;;;;;5129574;28;20050;-86
2022/07/18 05:36:35;;;;;;;1.30;0.60;;;16.60;99.90;;;;;;5128167;28;20056;-85
2022/07/18 05:39:02;;;;;;;0.17;0.17;;;16.60;99.90;;;;;;5095329;28;20040;-86
2022/07/18 05:41:29;;;;;;;0.55;0.30;;;16.60;99.90;;;;;;5145883;28;20040;-86
2022/07/18 05:43:56;;;;;;;0.77;0.50;;;16.70;99.90;;;;;;5095736;28;20046;-86
2022/07/18 05:46:23;;;;;;;0.40;0.40;;;16.70;99.90;;;;;;5108326;28;20392;-84
2022/07/18 05:48:49;;;;;;;0.20;0.17;;;16.80;99.90;;;;;;5132507;28;20126;-86
2022/07/18 05:51:17;;;;;;;1.27;0.57;;;16.80;99.90;;;;;;5132607;28;20039;-85
2022/07/18 05:53:43;;;;;;;0.45;0.22;;;16.90;99.90;;;;;;5149069;28;20086;-85
2022/07/18 05:56:10;;;;;;;0.30;0.30;;;16.90;99.90;;;;;;5132177;28;20059;-86
2022/07/18 05:58:37;;;;;;;0.88;0.32;;;17.00;99.90;;;;;;5148952;28;20046;-86
2022/07/18 06:01:04;;;;;;;0.88;0.40;;;17.10;99.90;;;;;;5149704;28;20446;-87
2022/07/18 06:03:30;;;;;;;1.20;0.60;;;17.10;99.90;;;;;;5166451;27;20062;-86
2022/07/18 06:05:57;;;;;;;0.20;0.20;;;17.20;99.90;;;;;;5166505;27;20031;-86
2022/07/18 06:08:24;;;;;;;0.45;0.20;;;17.20;99.90;;;;;;5132080;28;20078;-84
2022/07/18 06:10:50;;;;;;;0.35;0.32;;;17.30;99.90;;;;;;5131756;28;20043;-86
2022/07/18 06:13:17;;;;;;;0.28;0.28;;;17.30;99.90;;;;;;5135310;28;20040;-84
2022/07/18 06:15:44;;;;;;;0.38;0.30;;;17.40;99.90;;;;;;5128895;28;20385;-88
2022/07/18 06:18:10;;;;;;;0.20;0.20;;;17.50;99.90;;;;;;5137707;28;20043;-87
2022/07/18 06:20:37;;;;;;;0.30;0.30;;;17.60;99.90;;;;;;5109972;28;20092;-87
2022/07/18 06:23:04;;;;;;;0.25;0.25;;;17.70;99.90;;;;;;5128718;28;20028;-87
2022/07/18 06:25:30;;;;;;;0.45;0.40;;;17.80;99.90;;;;;;5123595;28;20787;-85
2022/07/18 06:27:57;;;;;;;0.38;0.25;;;17.90;99.90;;;;;;5115922;28;20043;-85
2022/07/18 06:30:24;;;;;;;0.38;0.30;;;17.90;99.90;;;;;;5099871;28;20047;-86
2022/07/18 06:32:51;;;;;;;0.80;0.40;;;18.00;99.90;;;;;;5106862;28;20077;-85
2022/07/18 06:35:17;;;;;;;0.75;0.38;;;18.00;99.90;;;;;;5129827;28;20051;-86
2022/07/18 06:37:44;;;;;;;0.20;0.20;;;18.00;99.90;;;;;;5127997;28;20500;-85
2022/07/18 06:40:11;;;;;;;0.82;0.35;;;18.10;99.90;;;;;;5134308;28;20032;-85
2022/07/18 06:42:38;;;;;;;0.20;0.20;;;18.10;99.90;;;;;;5148766;27;20040;-85
2022/07/18 06:45:06;;;;;;;0.40;0.20;;;18.20;99.90;;;;;;5148173;27;20049;-85
2022/07/18 06:47:33;;;;;;;0.80;0.50;;;18.30;99.90;;;;;;5131510;28;20515;-87
2022/07/18 06:50:00;;;;;;;0.57;0.30;;;18.30;99.90;;;;;;5131520;28;20044;-85
2022/07/18 06:52:26;;;;;;;0.75;0.40;;;18.40;99.90;;;;;;5131674;28;20039;-87
2022/07/18 06:54:53;;;;;;;0.55;0.50;;;18.60;99.90;;;;;;5115152;28;20052;-85
2022/07/18 06:57:20;;;;;;;0.20;0.20;;;18.70;99.90;;;;;;5097625;28;20051;-85
2022/07/18 06:59:46;;;;;;;0.47;0.40;;;18.80;99.90;;;;;;5148446;28;20122;-90
2022/07/18 07:02:13;;;;;;;0.38;0.35;;;18.90;99.90;;;;;;5131556;28;20062;-87
2022/07/18 07:04:40;;;;;;;0.45;0.28;;;19.00;99.90;;;;;;5119053;28;20043;-86
2022/07/18 07:07:06;;;;;;;0.55;0.28;;;19.20;99.90;;;;;;5145357;28;20563;-84
2022/07/18 07:09:33;;;;;;;0.20;0.20;;;19.40;99.90;;;;;;5115291;28;20496;-84
2022/07/18 07:12:00;;;;;;;0.15;0.13;;;19.60;99.90;;;;;;5108677;28;20036;-81
2022/07/18 07:14:26;;;;;;;0.40;0.30;;;19.80;99.90;;;;;;5112630;28;20118;-82
2022/07/18 07:16:53;;;;;;;1.58;0.50;;;19.90;99.90;;;;;;5126741;28;20040;-81
2022/07/18 07:19:20;;;;;;;0.10;0.10;;;20.00;99.90;;;;;;5109938;28;20040;-82
2022/07/18 07:21:46;;;;;;;4.55;0.32;;;20.00;99.90;;;;;;5126567;28;20097;-81
2022/07/18 07:24:13;;;;;;;0.10;0.10;;;20.00;99.90;;;;;;5117477;28;20063;-81
2022/07/18 07:26:42;;;;;;;0.10;0.10;;;20.10;99.90;;;;;;5180005;27;20088;-81
2022/07/18 07:29:09;;;;;;;0.95;0.22;;;20.10;99.90;;;;;;5147257;28;20051;-82
2022/07/18 07:31:36;;;;;;;0.43;0.22;;;20.20;99.90;;;;;;5147152;28;20043;-81
2022/07/18 07:34:03;;;;;;;0.30;0.25;;;20.30;99.90;;;;;;5130427;28;20453;-82
2022/07/18 07:36:29;;;;;;;0.30;0.20;;;20.40;99.90;;;;;;5164309;27;20058;-82
2022/07/18 07:38:56;;;;;;;0.38;0.30;;;20.60;99.90;;;;;;5146847;28;20649;-81
2022/07/18 07:41:23;;;;;;;0.17;0.17;;;20.70;99.90;;;;;;5147338;28;20176;-81
2022/07/18 07:43:50;;;;;;;0.52;0.30;;;20.70;99.90;;;;;;5129882;28;20130;-82
2022/07/18 07:46:16;;;;;;;0.28;0.28;;;20.80;99.90;;;;;;5164005;27;20043;-81
2022/07/18 07:48:43;;;;;;;0.20;0.20;;;20.80;99.90;;;;;;5129956;28;20043;-82
2022/07/18 07:51:10;;;;;;;0.28;0.22;;;20.90;99.90;;;;;;5164252;27;20043;-82
2022/07/18 07:53:37;;;;;;;0.38;0.20;;;21.00;99.90;;;;;;5129651;28;20130;-81
2022/07/18 07:56:04;;;;;;;0.52;0.20;;;21.20;99.90;;;;;;5129940;28;20047;-81
2022/07/18 07:58:31;;;;;;;0.57;0.28;;;21.30;99.90;;;;;;5146863;28;20035;-81
2022/07/18 08:00:58;;;;;;;0.28;0.22;;;21.50;99.90;;;;;;5146147;28;20048;-82
2022/07/18 08:03:25;;;;;;;0.20;0.20;;;21.60;99.90;;;;;;5146622;28;20549;-82
2022/07/18 08:05:52;;;;;;;0.20;0.20;;;21.50;99.90;;;;;;5146848;28;20551;-82
2022/07/18 08:08:19;;;;;;;0.20;0.20;;;21.60;99.90;;;;;;5164004;28;20131;-81
2022/07/18 08:10:47;;;;;;;0.30;0.20;;;21.60;99.90;;;;;;5129958;28;20039;-81
2022/07/18 08:13:14;;;;;;;0.43;0.20;;;21.80;99.90;;;;;;5146286;28;20039;-81
2022/07/18 08:15:41;;;;;;;0.17;0.17;;;22.00;99.90;;;;;;5146403;28;20039;-81
2022/07/18 08:18:08;;;;;;;0.13;0.13;;;22.10;99.90;;;;;;5146433;28;20039;-81
2022/07/18 08:20:35;;;;;;;0.28;0.20;;;22.40;99.90;;;;;;5146659;28;20550;-82
2022/07/18 08:23:05;;;;;;;0.13;0.13;;;22.50;99.90;;;;;;5146756;28;20092;-81
2022/07/18 08:25:35;;;;;;;0.17;0.17;;;22.70;99.90;;;;;;5146665;28;20036;-82
2022/07/18 08:28:03;;;;;;;0.45;0.30;;;22.80;99.90;;;;;;5146285;28;20044;-82
2022/07/18 08:30:31;;;;;;;0.10;0.10;;;22.90;99.90;;;;;;5129656;28;20043;-81
2022/07/18 08:32:58;;;;;;;0.50;0.20;;;22.90;99.90;;;;;;5129743;28;20108;-81
2022/07/18 08:35:25;;;;;;;0.50;0.40;;;22.90;99.90;;;;;;5129283;28;20412;-81
2022/07/18 08:37:51;;;;;;;0.35;0.22;;;22.90;99.90;;;;;;5146358;28;20047;-81
2022/07/18 08:40:18;;;;;;;0.52;0.30;;;22.80;99.90;;;;;;5163522;28;20092;-82
2022/07/18 08:42:47;;;;;;;0.25;0.20;;;22.90;99.90;;;;;;5145916;28;20036;-81
2022/07/18 08:45:13;;;;;;;0.43;0.20;;;22.90;99.90;;;;;;5146156;28;20031;-82
2022/07/18 08:47:41;;;;;;;0.52;0.30;;;23.10;99.70;;;;;;5163441;28;20046;-82
2022/07/18 08:50:08;;;;;;;0.10;0.10;;;23.20;99.90;;;;;;5129889;28;20458;-81
2022/07/18 08:52:37;;;;;;;0.20;0.20;;;23.30;99.90;;;;;;5129701;28;20044;-82
2022/07/18 08:55:06;;;;;;;0.30;0.20;;;23.40;99.20;;;;;;5145717;28;20116;-82
2022/07/18 08:57:33;;;;;;;0.10;0.10;;;23.60;99.90;;;;;;5146195;28;20492;-81
2022/07/18 09:00:02;;;;;;;0.30;0.28;;;23.70;99.30;;;;;;5163335;28;20048;-82
2022/07/18 09:02:28;;;;;;;0.13;0.13;;;23.80;99.90;;;;;;5146378;28;20403;-83
2022/07/18 09:04:55;;;;;;;0.28;0.20;;;24.00;99.90;;;;;;5163231;28;20039;-81
2022/07/18 09:07:34;;;;;;;0.77;0.28;;;24.00;97.90;;;;;;5146682;28;20131;-82
2022/07/18 09:10:05;;;;;;;0.20;0.10;;;24.20;99.60;;;;;;5146145;28;20510;-81
2022/07/18 09:12:32;;;;;;;0.22;0.20;;;24.20;99.60;;;;;;5164327;27;20055;-83
2022/07/18 09:15:07;;;;;;;0.10;0.10;;;24.20;98.70;;;;;;5149701;28;20036;-82
2022/07/18 09:17:35;;;;;;;0.30;0.20;;;24.30;99.00;;;;;;5132977;28;20036;-82
2022/07/18 09:20:14;;;;;;;0.32;0.10;;;24.20;99.30;;;;;;5149419;28;20043;-81
2022/07/18 09:22:43;;;;;;;0.30;0.30;;;24.20;99.90;;;;;;5133184;28;20102;-81
2022/07/18 09:25:12;;;;;;;0.35;0.20;;;24.20;99.90;;;;;;5149445;28;20035;-81
2022/07/18 09:27:41;;;;;;;0.10;0.10;;;24.20;99.30;;;;;;5166861;27;20621;-82
2022/07/18 09:30:25;;;;;;;0.25;0.20;;;24.20;99.30;;;;;;5132120;28;20118;-82
2022/07/18 09:33:06;;;;;;;0.38;0.30;;;24.20;99.30;;;;;;5129316;28;20036;-82
2022/07/18 09:35:45;;;;;;;0.35;0.28;;;24.30;98.50;;;;;;5146070;28;20048;-82
2022/07/18 09:38:15;;;;;;;0.20;0.20;;;24.30;99.60;;;;;;5145815;28;20044;-82
2022/07/18 09:40:42;;;;;;;0.20;0.20;;;24.20;98.20;;;;;;5149640;27;20035;-82
2022/07/18 09:43:12;;;;;;;0.20;0.20;;;24.30;97.60;;;;;;5149222;28;20518;-81
2022/07/18 09:45:47;;;;;;;0.20;0.20;;;24.30;99.00;;;;;;5132722;28;20044;-82
2022/07/18 09:48:25;;;;;;;0.17;0.15;;;24.40;97.40;;;;;;5149621;28;20047;-82
2022/07/18 09:50:55;;;;;;;0.20;0.13;;;24.40;96.50;;;;;;5132066;28;20039;-82
2022/07/18 09:53:26;;;;;;;0.32;0.30;;;24.50;97.60;;;;;;5132455;28;20046;-83
2022/07/18 09:55:58;;;;;;;0.10;0.10;;;24.60;96.70;;;;;;5166207;27;20043;-81
2022/07/18 09:58:29;;;;;;;0.10;0.10;;;24.70;96.90;;;;;;5131975;28;20420;-81
2022/07/18 10:00:57;;;;;;;0.30;0.20;;;24.80;97.90;;;;;;5131854;28;20039;-82
2022/07/18 10:03:25;;;;;;;0.50;0.30;;;24.90;95.90;;;;;;5149475;28;20100;-82
2022/07/18 10:05:53;;;;;;;0.20;0.10;;;24.90;96.80;;;;;;5148537;28;20096;-81
2022/07/18 10:08:25;;;;;;;0.20;0.20;;;25.00;98.10;;;;;;5149353;28;20043;-82
2022/07/18 10:10:54;;;;;;;0.22;0.20;;;25.10;96.50;;;;;;5148895;28;20075;-81
2022/07/18 10:13:22;;;;;;;0.20;0.20;;;25.20;97.20;;;;;;5148673;28;20842;-82
2022/07/18 10:15:50;;;;;;;0.25;0.20;;;25.20;97.90;;;;;;5165588;27;20043;-83
2022/07/18 10:18:20;;;;;;;0.25;0.25;;;25.40;96.40;;;;;;5148692;28;20048;-81
2022/07/18 10:20:56;;;;;;;3.20;0.35;;;25.40;97.30;;;;;;5131680;28;20652;-82
2022/07/18 10:23:29;;;;;;;0.13;0.13;;;25.50;97.90;;;;;;5131810;28;20034;-81
2022/07/18 10:26:19;;;;;;;0.38;0.25;;;25.60;97.70;;;;;;5148307;28;20050;-82
2022/07/18 10:28:55;;;;;;;0.10;0.10;;;25.70;96.90;;;;;;5131263;28;20496;-81
2022/07/18 10:31:33;;;;;;;0.17;0.17;;;25.80;96.60;;;;;;5165547;27;20044;-83
2022/07/18 10:34:28;;;;;;;0.22;0.20;;;25.90;95.90;;;;;;5165736;27;20130;-84
2022/07/18 10:36:56;;;;;;;0.38;0.22;;;26.00;95.60;;;;;;5146190;28;20094;-87
2022/07/18 10:39:37;;;;;;;0.43;0.30;;;26.10;93.90;;;;;;5166207;27;20036;-87
2022/07/18 10:42:10;;;;;;;0.10;0.10;;;26.30;92.90;;;;;;5131431;28;20039;-85
2022/07/18 10:44:39;;;;;;;0.20;0.20;;;26.50;95.00;;;;;;5165739;27;20039;-84
2022/07/18 10:47:08;;;;;;;0.20;0.20;;;26.60;93.00;;;;;;5137093;27;20399;-86
2022/07/18 10:49:47;;;;;;;0.15;0.15;;;26.80;94.30;;;;;;5168878;27;20043;-83
2022/07/18 10:52:38;;;;;;;0.30;0.30;;;27.00;92.90;;;;;;5152570;27;20043;-88
2022/07/18 10:55:17;;;;;;;0.20;0.20;;;27.10;92.30;;;;;;5134016;28;20044;-88
2022/07/18 10:57:49;;;;;;;0.20;0.20;;;27.00;91.80;;;;;;5165665;27;20150;-87
2022/07/18 11:00:37;;;;;;;0.22;0.20;;;27.20;92.80;;;;;;5168599;27;20389;-83
2022/07/18 11:03:10;;;;;;;0.50;0.40;;;27.20;92.60;;;;;;5124456;28;20059;-88
2022/07/18 11:05:52;;;;;;;0.30;0.30;;;27.30;90.00;;;;;;5144750;28;20126;-85
2022/07/18 11:08:23;;;;;;;0.30;0.30;;;27.40;90.70;;;;;;5156966;27;20419;-85
2022/07/18 11:10:51;;;;;;;0.22;0.22;;;27.40;90.60;;;;;;5165296;27;20044;-83
2022/07/18 11:13:32;;;;;;;0.20;0.20;;;27.50;87.30;;;;;;5163419;27;20126;-84
2022/07/18 11:16:00;;;;;;;0.40;0.40;;;27.40;86.10;;;;;;5162767;27;20133;-86
2022/07/18 11:18:26;;;;;;;0.43;0.30;;;27.50;87.60;;;;;;5166615;27;20123;-87
2022/07/18 11:20:53;;;;;;;0.40;0.40;;;27.70;87.20;;;;;;5131262;28;20164;-87
2022/07/18 11:23:21;;;;;;;0.40;0.30;;;27.80;90.80;;;;;;5148008;28;20053;-85
2022/07/18 11:25:54;;;;;;;0.55;0.40;;;27.80;85.30;;;;;;5147798;28;20067;-87
2022/07/18 11:28:21;;;;;;;0.70;0.30;;;27.90;84.00;;;;;;5148244;27;20404;-84
2022/07/18 11:31:05;;;;;;;0.43;0.32;;;28.00;88.30;;;;;;5130880;28;20047;-84
2022/07/18 11:33:35;;;;;;;0.85;0.50;;;28.10;87.20;;;;;;5147628;28;20036;-84
2022/07/18 11:36:11;;;;;;;1.05;0.63;;;28.10;87.70;;;;;;5129090;28;20044;-84
2022/07/18 11:38:45;;;;;;;0.63;0.43;;;28.30;82.70;;;;;;5130382;28;20119;-85
2022/07/18 11:41:12;;;;;;;0.75;0.45;;;28.40;81.40;;;;;;5130278;28;20043;-89
2022/07/18 11:43:39;;;;;;;0.68;0.43;;;28.50;78.70;;;;;;5148156;28;20404;-84
2022/07/18 11:46:08;;;;;;;0.57;0.40;;;28.60;80.90;;;;;;5147103;28;20108;-85
2022/07/18 11:48:37;;;;;;;0.30;0.30;;;28.60;78.70;;;;;;5147371;28;20114;-88
2022/07/18 11:51:16;;;;;;;0.35;0.30;;;28.70;78.30;;;;;;5130701;28;20082;-88
2022/07/18 11:53:49;;;;;;;1.10;0.60;;;28.70;79.00;;;;;;5164808;27;20100;-88
2022/07/18 11:56:17;;;;;;;0.50;0.40;;;28.90;81.40;;;;;;5147478;28;20111;-88
2022/07/18 11:58:45;;;;;;;0.20;0.20;;;29.00;81.70;;;;;;5147284;28;20039;-85
2022/07/18 12:01:13;;;;;;;0.35;0.30;;;29.10;81.30;;;;;;5146876;28;20529;-84
2022/07/18 12:03:50;;;;;;;0.57;0.30;;;29.20;81.40;;;;;;5147503;28;20374;-85
2022/07/18 12:06:22;;;;;;;0.35;0.30;;;29.20;79.80;;;;;;5130087;28;20031;-88
2022/07/18 12:08:51;;;;;;;0.65;0.40;;;29.30;81.90;;;;;;5147879;28;20045;-88
2022/07/18 12:11:27;;;;;;;1.27;0.55;;;29.20;78.60;;;;;;5129770;28;20097;-85
2022/07/18 12:14:02;;;;;;;0.47;0.40;;;29.10;76.70;;;;;;5146927;28;20077;-87
2022/07/18 12:16:39;;;;;;;1.02;0.40;;;29.00;79.20;;;;;;5164397;28;20488;-85
2022/07/18 12:19:12;;;;;;;0.40;0.40;;;29.00;74.20;;;;;;5147018;28;20046;-87
2022/07/18 12:21:48;;;;;;;1.08;0.65;;;29.10;76.20;;;;;;5164364;28;20698;-85
2022/07/18 12:24:27;;;;;;;0.93;0.60;;;29.20;74.40;;;;;;5164319;28;20095;-87
2022/07/18 12:27:31;;;;;;;0.65;0.40;;;29.30;75.60;;;;;;5164409;28;20043;-88
2022/07/18 12:30:17;;;;;;;0.30;0.30;;;29.40;77.90;;;;;;5154987;28;20039;-87
2022/07/18 12:32:56;;;;;;;0.50;0.40;;;29.50;75.20;;;;;;5143620;28;20039;-84
2022/07/18 12:35:25;;;;;;;0.70;0.40;;;29.60;75.80;;;;;;5142970;28;20582;-88
2022/07/18 12:38:04;;;;;;;0.32;0.32;;;29.60;72.70;;;;;;5143643;28;20040;-84
2022/07/18 12:40:46;;;;;;;0.43;0.38;;;29.60;70.90;;;;;;5155927;28;20036;-84
2022/07/18 12:43:24;;;;;;;0.55;0.45;;;29.70;73.60;;;;;;5130272;28;20036;-85
2022/07/18 12:45:52;;;;;;;0.50;0.40;;;29.60;71.80;;;;;;5130101;28;20445;-84
2022/07/18 12:48:19;;;;;;;0.40;0.40;;;29.50;70.50;;;;;;5131631;28;20492;-87
2022/07/18 12:50:46;;;;;;;0.55;0.47;;;29.60;75.60;;;;;;5117836;28;20048;-85
2022/07/18 12:53:13;;;;;;;0.30;0.30;;;29.60;70.20;;;;;;5151022;28;20559;-88
2022/07/18 12:55:40;;;;;;;0.82;0.55;;;29.70;74.60;;;;;;5168596;27;20039;-84
2022/07/18 12:58:07;;;;;;;0.50;0.47;;;29.70;71.00;;;;;;5184851;27;20062;-85
2022/07/18 13:00:34;;;;;;;0.57;0.40;;;29.70;72.00;;;;;;5168514;27;20043;-89